createdAt,value
2022-12-24T00:01:59.264Z,12.20
2022-12-24T00:06:05.380Z,12.52
2022-12-24T00:10:07.538Z,12.10
2022-12-24T00:14:09.018Z,12.25
2022-12-24T00:18:10.497Z,11.95
2022-12-24T00:22:11.967Z,10.52
2022-12-24T00:26:14.401Z,11.10
2022-12-24T00:30:16.059Z,9.02
2022-12-24T00:34:17.488Z,8.75
2022-12-24T00:38:19.002Z,9.48
2022-12-24T00:42:20.975Z,9.82
2022-12-24T00:46:23.946Z,9.70
2022-12-24T00:50:25.460Z,8.85
2022-12-24T00:54:26.881Z,7.55
2022-12-24T00:58:28.309Z,7.65
2022-12-24T01:02:29.964Z,8.68
2022-12-24T01:06:31.540Z,7.60
2022-12-24T01:10:33.069Z,7.25
2022-12-24T01:14:34.521Z,7.65
2022-12-24T01:18:35.950Z,7.32
2022-12-24T01:22:37.372Z,7.00
2022-12-24T01:26:38.820Z,9.20
2022-12-24T01:30:41.284Z,7.03
2022-12-24T01:34:42.921Z,8.20
2022-12-24T01:38:44.423Z,8.23
2022-12-24T01:43:07.595Z,7.53
2022-12-24T01:47:25.718Z,8.05
2022-12-24T01:51:32.867Z,9.13
2022-12-24T01:55:34.501Z,8.18
2022-12-24T01:59:37.554Z,8.73
2022-12-24T02:03:39.204Z,7.82
2022-12-24T02:07:43.115Z,8.65
2022-12-24T02:11:45.042Z,8.15
2022-12-24T02:16:14.190Z,9.05
2022-12-24T02:20:54.551Z,8.95
2022-12-24T02:25:20.283Z,9.73
2022-12-24T02:29:24.432Z,9.73
2022-12-24T02:33:35.820Z,8.93
2022-12-24T02:37:45.856Z,9.85
2022-12-24T02:42:07.814Z,10.13
2022-12-24T02:46:15.196Z,10.07
2022-12-24T02:50:18.161Z,10.57
2022-12-24T02:54:19.793Z,10.45
2022-12-24T02:59:02.738Z,10.45
2022-12-24T03:03:42.542Z,10.27
2022-12-24T03:07:57.384Z,11.32
2022-12-24T03:12:04.120Z,11.23
2022-12-24T03:16:13.274Z,10.77
2022-12-24T03:20:20.818Z,11.63
2022-12-24T03:24:22.353Z,12.15
2022-12-24T03:28:27.653Z,11.88
2022-12-24T03:32:30.836Z,10.65
2022-12-24T03:36:32.289Z,10.77
2022-12-24T03:40:34.102Z,10.50
2022-12-24T03:44:35.583Z,11.00
2022-12-24T03:48:37.125Z,12.57
2022-12-24T03:52:38.666Z,10.95
2022-12-24T03:56:40.104Z,10.98
2022-12-24T04:00:41.623Z,9.98
2022-12-24T04:04:43.158Z,12.13
2022-12-24T04:08:45.161Z,13.20
2022-12-24T04:12:48.950Z,11.93
2022-12-24T04:16:51.774Z,12.05
2022-12-24T04:20:56.793Z,12.88
2022-12-24T04:24:58.217Z,13.80
2022-12-24T04:28:59.653Z,13.23
2022-12-24T04:33:01.674Z,13.45
2022-12-24T04:37:03.672Z,14.13
2022-12-24T04:41:17.395Z,14.15
2022-12-24T04:45:24.066Z,14.02
2022-12-24T04:49:25.603Z,14.30
2022-12-24T04:53:27.017Z,13.27
2022-12-24T04:57:28.445Z,14.98
2022-12-24T05:01:33.097Z,14.77
2022-12-24T05:05:34.825Z,13.90
2022-12-24T05:09:36.309Z,14.80
2022-12-24T05:13:45.999Z,13.82
2022-12-24T05:17:48.391Z,14.27
2022-12-24T05:22:09.774Z,13.35
2022-12-24T05:26:40.325Z,13.60
2022-12-24T05:30:41.803Z,13.45
2022-12-24T05:34:43.345Z,13.23
2022-12-24T05:38:44.824Z,12.30
2022-12-24T05:42:46.230Z,13.30
2022-12-24T05:46:47.786Z,13.63
2022-12-24T05:50:49.249Z,13.38
2022-12-24T05:54:50.697Z,13.05
2022-12-24T05:58:53.572Z,14.30
2022-12-24T06:02:55.201Z,12.20
2022-12-24T06:06:56.721Z,12.65
2022-12-24T06:11:00.461Z,15.00
2022-12-24T06:15:02.091Z,13.18
2022-12-24T06:19:03.568Z,14.68
2022-12-24T06:23:05.037Z,14.45
2022-12-24T06:27:06.541Z,15.02
2022-12-24T06:31:12.711Z,12.93
2022-12-24T06:35:14.238Z,14.07
2022-12-24T06:39:15.690Z,13.95
2022-12-24T06:43:17.241Z,12.57
2022-12-24T06:47:18.670Z,13.43
2022-12-24T06:51:20.761Z,12.93
2022-12-24T06:55:22.227Z,14.70
2022-12-24T06:59:23.722Z,12.85
2022-12-24T07:03:25.227Z,15.52
2022-12-24T07:07:29.552Z,12.63
2022-12-24T07:11:31.112Z,14.25
2022-12-24T07:15:32.641Z,13.77
2022-12-24T07:19:34.309Z,13.88
2022-12-24T07:23:35.787Z,15.50
2022-12-24T07:27:38.317Z,13.30
2022-12-24T07:31:39.856Z,13.40
2022-12-24T07:35:41.370Z,13.65
2022-12-24T07:39:42.803Z,13.73
2022-12-24T07:43:44.355Z,15.45
2022-12-24T07:47:45.780Z,40.47
2022-12-24T07:51:47.251Z,14.30
2022-12-24T07:55:48.893Z,15.93
2022-12-24T07:59:50.338Z,12.88
2022-12-24T08:03:54.519Z,13.13
2022-12-24T08:07:56.494Z,14.55
2022-12-24T08:11:57.952Z,11.45
2022-12-24T08:15:59.634Z,11.40
2022-12-24T08:20:01.137Z,14.38
2022-12-24T08:24:02.620Z,13.48
2022-12-24T08:28:05.590Z,13.55
2022-12-24T08:32:08.313Z,13.48
2022-12-24T08:36:09.898Z,12.48
2022-12-24T08:40:15.195Z,13.77
2022-12-24T08:44:16.676Z,14.05
2022-12-24T08:48:18.206Z,12.57
2022-12-24T08:52:19.738Z,12.52
2022-12-24T08:56:21.203Z,13.73
2022-12-24T09:00:22.925Z,12.65
2022-12-24T09:04:24.391Z,12.63
2022-12-24T09:08:25.837Z,12.75
2022-12-24T09:12:27.345Z,12.90
2022-12-24T09:16:29.058Z,13.90
2022-12-24T09:20:30.571Z,13.35
2022-12-24T09:24:32.294Z,14.20
2022-12-24T09:28:33.816Z,12.60
2022-12-24T09:32:35.301Z,13.55
2022-12-24T09:36:36.851Z,12.52
2022-12-24T09:40:40.349Z,14.77
2022-12-24T09:44:55.640Z,12.70
2022-12-24T09:49:02.632Z,12.50
2022-12-24T09:53:12.550Z,11.48
2022-12-24T10:01:21.057Z,11.43
2022-12-24T10:05:47.943Z,9.18
2022-12-24T10:09:52.147Z,10.10
2022-12-24T10:14:17.535Z,5.47
2022-12-24T10:18:48.900Z,10.65
2022-12-24T10:23:02.833Z,7.18
2022-12-24T10:27:14.792Z,8.05
2022-12-24T10:31:18.003Z,8.27
2022-12-24T10:35:54.173Z,6.25
2022-12-24T10:39:58.111Z,2.35
2022-12-24T10:44:00.136Z,7.18
2022-12-24T10:48:06.077Z,6.50
2022-12-24T10:52:14.497Z,5.60
2022-12-24T10:56:18.660Z,5.00
2022-12-24T11:00:24.320Z,3.78
2022-12-24T11:04:45.033Z,3.40
2022-12-24T11:08:47.196Z,2.08
2022-12-24T11:13:12.855Z,7.20
2022-12-24T11:17:23.123Z,3.28
2022-12-24T11:21:31.306Z,3.72
2022-12-24T11:25:37.910Z,4.38
2022-12-24T11:29:39.376Z,3.40
2022-12-24T11:33:49.598Z,4.05
2022-12-24T11:37:59.780Z,4.28
2022-12-24T11:42:01.290Z,4.43
2022-12-24T11:46:32.650Z,3.78
2022-12-24T11:50:36.674Z,5.10
2022-12-24T11:54:43.385Z,4.72
2022-12-24T11:58:56.695Z,4.97
2022-12-24T12:03:02.464Z,4.70
2022-12-24T12:07:15.102Z,5.15
2022-12-24T12:11:17.259Z,4.78
2022-12-24T12:15:25.569Z,3.45
2022-12-24T12:19:33.634Z,5.05
2022-12-24T12:23:46.998Z,4.32
2022-12-24T12:27:52.961Z,5.60
2022-12-24T12:32:04.442Z,5.10
2022-12-24T12:36:09.996Z,5.15
2022-12-24T12:40:16.309Z,4.78
2022-12-24T12:44:26.583Z,4.35
2022-12-24T12:48:37.075Z,4.35
2022-12-24T12:52:54.276Z,5.10
2022-12-24T12:57:00.875Z,4.47
2022-12-24T13:01:19.201Z,4.25
2022-12-24T13:05:29.743Z,4.22
2022-12-24T13:09:57.389Z,4.20
2022-12-24T13:14:07.918Z,4.40
2022-12-24T13:18:51.829Z,4.50
2022-12-24T13:22:56.364Z,5.25
2022-12-24T13:27:21.194Z,4.70
2022-12-24T13:31:25.416Z,4.65
2022-12-24T13:35:35.265Z,4.13
2022-12-24T13:40:02.884Z,5.90
2022-12-24T13:44:25.011Z,5.93
2022-12-24T13:48:34.504Z,5.05
2022-12-24T13:52:42.147Z,4.35
2022-12-24T13:56:44.155Z,4.57
2022-12-24T14:00:54.999Z,5.63
2022-12-24T14:05:02.093Z,5.78
2022-12-24T14:09:17.010Z,5.63
2022-12-24T14:13:40.008Z,5.47
2022-12-24T14:17:41.640Z,5.80
2022-12-24T14:21:52.616Z,5.60
2022-12-24T14:25:54.050Z,5.53
2022-12-24T14:30:07.122Z,5.35
2022-12-24T14:34:13.115Z,5.20
2022-12-24T14:38:21.329Z,5.22
2022-12-24T14:42:36.069Z,4.35
2022-12-24T14:47:01.507Z,4.18
2022-12-24T14:51:18.136Z,5.05
2022-12-24T14:55:43.363Z,4.55
2022-12-24T14:59:54.819Z,5.88
2022-12-24T15:04:02.197Z,4.85
2022-12-24T15:08:10.270Z,5.80
2022-12-24T15:12:12.598Z,5.43
2022-12-24T15:16:22.487Z,5.78
2022-12-24T15:24:33.345Z,5.93
2022-12-24T15:28:39.208Z,5.40
2022-12-24T15:32:40.718Z,5.45
2022-12-24T15:36:42.211Z,6.72
2022-12-24T15:40:49.009Z,8.55
2022-12-24T15:45:06.035Z,6.60
2022-12-24T15:49:16.126Z,13.43
2022-12-24T15:53:24.686Z,8.00
2022-12-24T15:57:33.928Z,7.22
2022-12-24T16:01:37.850Z,6.63
2022-12-24T16:05:40.143Z,7.85
2022-12-24T16:09:43.791Z,7.32
2022-12-24T16:13:51.391Z,8.40
2022-12-24T16:17:53.277Z,6.95
2022-12-24T16:21:58.254Z,6.97
2022-12-24T16:25:59.807Z,7.75
2022-12-24T16:30:01.299Z,9.25
2022-12-24T16:34:03.649Z,6.32
2022-12-24T16:38:05.245Z,7.40
2022-12-24T16:42:25.365Z,7.65
2022-12-24T16:46:26.936Z,7.47
2022-12-24T16:50:28.505Z,7.35
2022-12-24T16:54:30.143Z,7.18
2022-12-24T16:58:31.800Z,6.72
2022-12-24T17:02:33.376Z,7.28
2022-12-24T17:06:35.043Z,8.52
2022-12-24T17:10:36.976Z,12.90
2022-12-24T17:14:39.114Z,16.65
2022-12-24T17:18:40.640Z,20.00
2022-12-24T17:22:42.162Z,14.70
2022-12-24T17:26:44.185Z,14.27
2022-12-24T17:30:45.794Z,13.77
2022-12-24T17:34:47.330Z,11.95
2022-12-24T17:38:49.069Z,12.23
2022-12-24T17:42:50.585Z,13.48
2022-12-24T17:46:52.285Z,11.50
2022-12-24T17:50:53.876Z,10.30
2022-12-24T17:54:55.431Z,8.77
2022-12-24T17:58:57.807Z,7.80
2022-12-24T18:02:59.513Z,6.57
2022-12-24T18:07:03.154Z,6.07
2022-12-24T18:11:16.701Z,9.95
2022-12-24T18:15:20.212Z,6.07
2022-12-24T18:19:21.703Z,5.22
2022-12-24T18:23:23.172Z,5.22
2022-12-24T18:27:24.638Z,6.45
2022-12-24T18:31:26.962Z,6.47
2022-12-24T18:35:28.779Z,5.93
2022-12-24T18:39:30.239Z,6.88
2022-12-24T18:43:31.813Z,6.13
2022-12-24T18:47:33.227Z,6.70
2022-12-24T18:51:36.164Z,5.70
2022-12-24T18:55:38.227Z,5.82
2022-12-24T18:59:39.716Z,6.65
2022-12-24T19:03:41.219Z,6.50
2022-12-24T19:07:42.720Z,6.05
2022-12-24T19:11:44.207Z,5.93
2022-12-24T19:15:45.753Z,5.65
2022-12-24T19:19:47.265Z,6.32
2022-12-24T19:23:49.125Z,7.43
2022-12-24T19:27:50.589Z,6.57
2022-12-24T19:31:52.270Z,6.55
2022-12-24T19:35:53.980Z,6.15
2022-12-24T19:39:55.455Z,5.82
2022-12-24T19:44:01.350Z,5.72
2022-12-24T19:48:03.290Z,5.38
2022-12-24T19:52:04.861Z,3.67
2022-12-24T19:56:08.574Z,4.68
2022-12-24T20:00:10.961Z,4.68
2022-12-24T20:04:12.442Z,4.25
2022-12-24T20:08:13.972Z,5.20
2022-12-24T20:12:15.440Z,4.65
2022-12-24T20:16:21.562Z,4.72
2022-12-24T20:20:23.148Z,3.30
2022-12-24T20:24:24.629Z,6.20
2022-12-24T20:28:30.947Z,4.65
2022-12-24T20:32:33.632Z,4.32
2022-12-24T20:36:37.161Z,3.20
2022-12-24T20:40:43.431Z,3.00
2022-12-24T20:44:44.879Z,2.88
2022-12-24T20:48:46.935Z,3.40
2022-12-24T20:52:48.352Z,3.45
2022-12-24T20:56:58.271Z,3.90
2022-12-24T21:01:00.482Z,2.97
2022-12-24T21:05:02.956Z,2.88
2022-12-24T21:09:05.986Z,3.38
2022-12-24T21:13:07.893Z,3.08
2022-12-24T21:17:15.198Z,2.65
2022-12-24T21:21:17.658Z,3.30
2022-12-24T21:25:19.200Z,2.20
2022-12-24T21:29:20.674Z,2.13
2022-12-24T21:33:22.498Z,3.25
2022-12-24T21:37:23.981Z,3.15
2022-12-24T21:41:26.141Z,3.00
2022-12-24T21:45:27.683Z,1.75
2022-12-24T21:49:47.775Z,3.60
2022-12-24T21:54:08.123Z,3.45
2022-12-24T22:02:13.821Z,4.15
2022-12-24T22:06:35.794Z,4.13
2022-12-24T22:10:56.992Z,4.50
2022-12-24T22:14:59.193Z,3.58
2022-12-24T22:19:00.641Z,4.32
2022-12-24T22:23:02.195Z,4.97
2022-12-24T22:27:03.639Z,4.10
2022-12-24T22:31:05.355Z,4.53
2022-12-24T22:35:07.050Z,4.05
2022-12-24T22:39:08.579Z,4.75
2022-12-24T22:43:10.111Z,3.30
2022-12-24T22:47:11.584Z,5.50
2022-12-24T22:51:19.346Z,5.13
2022-12-24T22:55:21.500Z,5.53
2022-12-24T22:59:22.968Z,6.07
2022-12-24T23:03:25.185Z,6.57
2022-12-24T23:07:26.778Z,5.90
2022-12-24T23:11:28.338Z,5.72
2022-12-24T23:15:29.896Z,6.15
2022-12-24T23:19:33.369Z,5.50
2022-12-24T23:23:37.065Z,5.85
2022-12-24T23:27:38.740Z,5.88
2022-12-24T23:31:40.248Z,6.55
2022-12-24T23:35:41.763Z,6.93
2022-12-24T23:39:43.175Z,6.85
2022-12-24T23:43:45.471Z,5.25
2022-12-24T23:47:46.907Z,5.65
2022-12-24T23:51:48.388Z,5.65
2022-12-24T23:55:49.915Z,5.95
2022-12-24T23:59:51.397Z,6.72
